Time;durP1;ratioP1;P1;durP2;ratioP2;P2;SDS_P1;SDS_P2;PMS_P1;PMS_P2;Temp;Humidity;BMP_temperature;BMP_pressure;BME280_temperature;BME280_humidity;BME280_pressure;Samples;Min_cycle;Max_cycle;Signal;HPM_P1;HPM_P2
2023/03/20 00:00:23;;;;;;;19.98;12.95;;;9.90;71.30;;;;;;5055715;28;20025;-68
2023/03/20 00:02:48;;;;;;;18.77;11.68;;;9.80;72.20;;;;;;5055858;28;20039;-68
2023/03/20 00:05:20;;;;;;;17.15;12.63;;;9.70;72.70;;;;;;5055512;28;20029;-67
2023/03/20 00:07:46;;;;;;;18.60;12.15;;;9.70;72.90;;;;;;5056134;28;20021;-68
2023/03/20 00:10:12;;;;;;;19.05;12.57;;;9.70;73.10;;;;;;5055525;28;20025;-68
2023/03/20 00:12:38;;;;;;;20.17;12.80;;;9.70;73.20;;;;;;5055498;28;20075;-69
2023/03/20 00:15:15;;;;;;;20.70;12.73;;;9.60;73.50;;;;;;5055295;28;20025;-69
2023/03/20 00:17:40;;;;;;;20.80;11.80;;;9.60;73.70;;;;;;5055656;28;20028;-68
2023/03/20 00:20:13;;;;;;;19.58;13.77;;;9.50;73.90;;;;;;5055405;28;20074;-68
2023/03/20 00:22:38;;;;;;;19.63;13.82;;;9.50;74.40;;;;;;5055620;28;20070;-69
2023/03/20 00:25:05;;;;;;;18.50;13.55;;;9.40;74.80;;;;;;5055054;28;20033;-69
2023/03/20 00:27:30;;;;;;;18.33;13.13;;;9.40;74.90;;;;;;5055391;28;20079;-68
2023/03/20 00:29:57;;;;;;;21.58;13.02;;;9.40;75.00;;;;;;5054145;28;20025;-69
2023/03/20 00:32:23;;;;;;;21.48;13.35;;;9.40;75.60;;;;;;5055333;28;20104;-68
2023/03/20 00:34:48;;;;;;;20.10;13.85;;;9.40;75.60;;;;;;5055416;28;20517;-68
2023/03/20 00:37:14;;;;;;;19.30;12.85;;;9.30;75.90;;;;;;5053793;28;20055;-67
2023/03/20 00:39:40;;;;;;;19.63;13.48;;;9.30;76.40;;;;;;5055260;28;20082;-68
2023/03/20 00:42:12;;;;;;;20.42;13.93;;;9.30;76.20;;;;;;5054473;28;20029;-69
2023/03/20 00:44:44;;;;;;;23.60;15.23;;;9.30;76.30;;;;;;5055115;28;20474;-69
2023/03/20 00:47:19;;;;;;;20.88;13.65;;;9.30;76.40;;;;;;5054934;28;20037;-69
2023/03/20 00:49:47;;;;;;;19.83;13.80;;;9.20;76.30;;;;;;5055201;28;20385;-68
2023/03/20 00:52:13;;;;;;;21.75;14.40;;;9.20;76.70;;;;;;5054839;28;20025;-69
2023/03/20 00:54:39;;;;;;;19.95;13.63;;;9.20;76.80;;;;;;5054979;28;20028;-67
2023/03/20 00:57:13;;;;;;;20.60;14.45;;;9.20;77.00;;;;;;5054673;28;20403;-67
2023/03/20 00:59:51;;;;;;;21.42;14.80;;;9.20;77.10;;;;;;5055087;28;20386;-68
2023/03/20 01:02:17;;;;;;;21.85;15.30;;;9.10;77.10;;;;;;5053256;28;20036;-68
2023/03/20 01:04:43;;;;;;;20.75;14.55;;;9.10;77.30;;;;;;5053723;28;20377;-68
2023/03/20 01:07:14;;;;;;;20.10;14.77;;;9.10;77.50;;;;;;5054035;28;20367;-69
2023/03/20 01:09:40;;;;;;;22.00;14.57;;;9.20;77.40;;;;;;5054523;28;20032;-69
2023/03/20 01:12:07;;;;;;;24.13;14.43;;;9.20;77.20;;;;;;5054160;28;20039;-69
2023/03/20 01:14:33;;;;;;;23.48;14.60;;;9.10;77.10;;;;;;5055024;28;20466;-69
2023/03/20 01:16:59;;;;;;;23.27;14.77;;;9.20;77.20;;;;;;5054709;28;20031;-69
2023/03/20 01:19:25;;;;;;;21.35;14.23;;;9.20;77.40;;;;;;5054276;28;20021;-69
2023/03/20 01:21:51;;;;;;;17.85;13.70;;;9.20;77.20;;;;;;5054403;28;20109;-67
2023/03/20 01:24:16;;;;;;;19.98;14.38;;;9.20;77.00;;;;;;5053884;28;20457;-68
2023/03/20 01:26:44;;;;;;;21.33;14.75;;;9.30;77.00;;;;;;5054414;28;20039;-67
2023/03/20 01:29:22;;;;;;;22.60;14.10;;;9.30;76.70;;;;;;5054012;28;20033;-67
2023/03/20 01:31:49;;;;;;;24.73;15.20;;;9.30;76.70;;;;;;5054382;28;20029;-68
2023/03/20 01:34:15;;;;;;;19.95;15.00;;;9.30;76.60;;;;;;5054051;28;20108;-69
2023/03/20 01:36:48;;;;;;;23.52;15.07;;;9.30;76.50;;;;;;5054040;28;20037;-67
2023/03/20 01:39:14;;;;;;;19.88;14.23;;;9.40;76.60;;;;;;5053999;28;20032;-68
2023/03/20 01:41:40;;;;;;;22.85;14.70;;;9.40;76.30;;;;;;5054216;28;20029;-67
2023/03/20 01:44:23;;;;;;;22.60;15.50;;;9.40;76.40;;;;;;5054038;28;20056;-68
2023/03/20 01:46:52;;;;;;;21.67;15.07;;;9.40;76.20;;;;;;5053967;28;20037;-67
2023/03/20 01:49:18;;;;;;;22.88;14.93;;;9.40;76.00;;;;;;5052478;28;20029;-67
2023/03/20 01:51:44;;;;;;;20.63;14.98;;;9.40;76.10;;;;;;5053698;28;20131;-67
2023/03/20 01:54:29;;;;;;;23.88;14.88;;;9.40;76.40;;;;;;5053473;28;20485;-68
2023/03/20 01:56:58;;;;;;;23.30;15.13;;;9.30;76.30;;;;;;5054077;28;20029;-68
2023/03/20 01:59:28;;;;;;;22.55;14.45;;;9.30;76.10;;;;;;5053082;28;20025;-68
2023/03/20 02:01:55;;;;;;;23.83;16.33;;;9.30;76.30;;;;;;5054021;28;20036;-68
2023/03/20 02:04:25;;;;;;;20.65;14.95;;;9.30;76.30;;;;;;5053016;28;20033;-69
2023/03/20 02:06:50;;;;;;;23.45;15.90;;;9.30;76.50;;;;;;5053726;28;20094;-69
2023/03/20 02:09:16;;;;;;;23.60;15.60;;;9.20;77.10;;;;;;5053015;28;20071;-69
2023/03/20 02:11:44;;;;;;;23.00;15.27;;;9.20;76.60;;;;;;5053323;28;20052;-69
2023/03/20 02:14:11;;;;;;;25.20;15.35;;;9.20;76.60;;;;;;5052637;28;20381;-69
2023/03/20 02:16:37;;;;;;;22.60;15.38;;;9.20;76.80;;;;;;5053616;28;20044;-69
2023/03/20 02:19:05;;;;;;;26.15;16.73;;;9.20;76.90;;;;;;5053221;28;20017;-69
2023/03/20 02:21:31;;;;;;;27.20;15.70;;;9.20;77.00;;;;;;5053158;28;20493;-69
2023/03/20 02:24:15;;;;;;;28.35;16.35;;;9.20;76.90;;;;;;5053631;28;20036;-69
2023/03/20 02:26:55;;;;;;;24.45;15.75;;;9.10;76.90;;;;;;5053471;28;20044;-69
2023/03/20 02:29:46;;;;;;;22.07;15.90;;;9.10;77.20;;;;;;5052915;28;20409;-67
2023/03/20 02:32:37;;;;;;;25.13;16.02;;;9.10;77.70;;;;;;5052794;28;20380;-69
2023/03/20 02:35:24;;;;;;;26.40;16.43;;;9.10;78.00;;;;;;5053335;28;20025;-68
2023/03/20 02:37:56;;;;;;;23.67;15.90;;;9.10;78.00;;;;;;5053188;28;20029;-68
2023/03/20 02:40:24;;;;;;;25.15;15.18;;;9.10;78.10;;;;;;5053038;28;20104;-68
2023/03/20 02:42:59;;;;;;;27.73;16.52;;;9.10;78.20;;;;;;5052798;28;20075;-69
2023/03/20 02:45:40;;;;;;;25.58;15.45;;;9.10;78.50;;;;;;5052420;28;20520;-68
2023/03/20 02:48:27;;;;;;;24.98;17.00;;;9.00;78.90;;;;;;5053121;28;20037;-68
2023/03/20 02:51:11;;;;;;;25.60;17.15;;;9.00;79.10;;;;;;5053460;28;20032;-68
2023/03/20 02:53:55;;;;;;;22.67;16.17;;;9.00;79.00;;;;;;5052706;28;20275;-68
2023/03/20 02:56:33;;;;;;;21.17;15.57;;;9.00;79.00;;;;;;5052670;28;20029;-68
2023/03/20 02:59:18;;;;;;;22.90;15.88;;;9.00;79.20;;;;;;5052985;28;20040;-68
2023/03/20 03:01:51;;;;;;;22.85;16.38;;;9.00;78.90;;;;;;5052500;28;20037;-68
2023/03/20 03:04:23;;;;;;;21.98;15.70;;;9.00;79.10;;;;;;5052373;28;20091;-68
2023/03/20 03:06:54;;;;;;;25.33;16.77;;;9.00;79.20;;;;;;5052480;28;20466;-68
2023/03/20 03:09:30;;;;;;;25.92;15.90;;;9.00;79.00;;;;;;5052754;28;20047;-68
2023/03/20 03:12:02;;;;;;;27.02;16.50;;;8.90;79.40;;;;;;5052576;28;20072;-68
2023/03/20 03:14:42;;;;;;;23.80;16.08;;;8.90;79.50;;;;;;5052495;28;20033;-68
2023/03/20 03:17:10;;;;;;;25.67;16.35;;;8.90;79.70;;;;;;5052750;28;20060;-68
2023/03/20 03:19:38;;;;;;;22.90;15.27;;;8.90;79.90;;;;;;5052302;28;20516;-68
2023/03/20 03:22:04;;;;;;;22.42;15.38;;;8.90;79.90;;;;;;5051409;28;20371;-68
2023/03/20 03:24:31;;;;;;;28.70;16.33;;;8.80;79.60;;;;;;5051905;28;20025;-68
2023/03/20 03:27:00;;;;;;;24.60;15.88;;;8.80;79.90;;;;;;5056176;28;20389;-68
2023/03/20 03:29:32;;;;;;;26.75;17.08;;;8.80;79.90;;;;;;5056275;28;20029;-68
2023/03/20 03:32:01;;;;;;;25.15;18.15;;;8.80;80.90;;;;;;5056710;28;20036;-68
2023/03/20 03:34:27;;;;;;;22.30;17.00;;;8.70;83.60;;;;;;5056091;28;20052;-68
2023/03/20 03:36:58;;;;;;;24.50;17.30;;;8.80;84.60;;;;;;5056602;28;20029;-68
2023/03/20 03:39:42;;;;;;;27.05;19.85;;;8.80;85.30;;;;;;5056233;28;20029;-68
2023/03/20 03:42:30;;;;;;;26.70;18.13;;;8.80;86.70;;;;;;5056319;28;20029;-68
2023/03/20 03:45:08;;;;;;;27.73;18.63;;;8.90;87.90;;;;;;5056512;28;20071;-68
2023/03/20 03:47:51;;;;;;;27.70;18.75;;;8.90;88.90;;;;;;5055971;28;20036;-68
2023/03/20 03:50:46;;;;;;;29.15;20.10;;;8.90;89.20;;;;;;5055950;28;20079;-68
2023/03/20 03:53:14;;;;;;;29.35;19.80;;;9.00;89.50;;;;;;5056319;28;20033;-69
2023/03/20 03:55:48;;;;;;;29.70;19.60;;;8.90;89.60;;;;;;5055959;28;20044;-68
2023/03/20 03:58:29;;;;;;;26.38;18.67;;;8.90;90.10;;;;;;5055783;28;20021;-69
2023/03/20 04:00:57;;;;;;;28.65;19.88;;;8.90;90.80;;;;;;5056417;28;20028;-67
2023/03/20 04:03:30;;;;;;;26.30;18.88;;;8.90;91.20;;;;;;5055637;28;20039;-68
2023/03/20 04:05:58;;;;;;;27.63;20.45;;;8.90;91.90;;;;;;5056155;28;20114;-68
2023/03/20 04:08:24;;;;;;;27.58;21.05;;;8.90;92.20;;;;;;5055652;28;20025;-67
2023/03/20 04:10:50;;;;;;;27.02;20.05;;;8.90;92.70;;;;;;5055584;28;20519;-68
2023/03/20 04:13:15;;;;;;;28.30;21.65;;;8.90;93.10;;;;;;5055747;28;20408;-69
2023/03/20 04:15:42;;;;;;;28.00;22.02;;;8.90;93.40;;;;;;5055828;28;20112;-67
2023/03/20 04:18:15;;;;;;;31.73;21.58;;;8.90;94.00;;;;;;5055509;28;20033;-67
2023/03/20 04:20:41;;;;;;;30.20;21.60;;;8.90;94.60;;;;;;5055782;28;20076;-67
2023/03/20 04:23:07;;;;;;;26.17;21.48;;;8.90;95.00;;;;;;5055551;28;20036;-67
2023/03/20 04:25:33;;;;;;;29.85;21.90;;;8.90;95.10;;;;;;5055205;28;20270;-67
2023/03/20 04:27:59;;;;;;;29.00;21.52;;;8.90;95.30;;;;;;5055429;28;20355;-68
2023/03/20 04:30:24;;;;;;;30.67;22.17;;;8.90;95.40;;;;;;5055188;28;20028;-67
2023/03/20 04:32:50;;;;;;;32.15;22.38;;;9.00;95.30;;;;;;5055367;28;20473;-67
2023/03/20 04:35:15;;;;;;;33.55;23.08;;;8.90;95.40;;;;;;5055118;28;20032;-68
2023/03/20 04:37:41;;;;;;;31.52;21.70;;;8.90;95.30;;;;;;5055587;28;20115;-68
2023/03/20 04:40:08;;;;;;;34.67;22.08;;;8.90;95.20;;;;;;5055370;28;20055;-68
2023/03/20 04:42:34;;;;;;;29.85;22.25;;;8.90;95.40;;;;;;5054922;28;20053;-68
2023/03/20 04:44:59;;;;;;;31.92;23.02;;;8.90;95.80;;;;;;5055375;28;20409;-68
2023/03/20 04:47:25;;;;;;;32.17;22.27;;;8.90;95.70;;;;;;5055063;28;20416;-68
2023/03/20 04:49:51;;;;;;;33.13;23.75;;;8.90;95.90;;;;;;5055312;28;20457;-68
2023/03/20 04:52:16;;;;;;;32.60;22.35;;;8.90;96.10;;;;;;5054954;28;20508;-69
2023/03/20 04:54:42;;;;;;;31.17;23.05;;;8.90;96.30;;;;;;5055040;28;20017;-69
2023/03/20 04:57:08;;;;;;;29.08;22.25;;;8.90;96.30;;;;;;5055126;28;20089;-69
2023/03/20 04:59:33;;;;;;;29.40;23.10;;;8.80;96.30;;;;;;5054415;28;20025;-69
2023/03/20 05:01:59;;;;;;;32.17;22.75;;;8.90;96.60;;;;;;5055132;28;20024;-69
2023/03/20 05:04:25;;;;;;;28.90;23.13;;;8.90;96.80;;;;;;5054511;28;20029;-69
2023/03/20 05:06:51;;;;;;;28.13;22.17;;;8.90;96.80;;;;;;5054711;28;20040;-69
2023/03/20 05:09:17;;;;;;;32.33;22.50;;;8.90;97.00;;;;;;5053065;28;20021;-69
2023/03/20 05:11:42;;;;;;;31.23;22.73;;;8.90;97.30;;;;;;5053114;28;20032;-69
2023/03/20 05:14:08;;;;;;;29.02;22.20;;;8.90;97.40;;;;;;5054709;28;20102;-69
2023/03/20 05:16:34;;;;;;;32.00;22.40;;;8.90;97.40;;;;;;5054200;28;20100;-67
2023/03/20 05:19:00;;;;;;;33.00;22.95;;;8.90;97.50;;;;;;5054761;28;20060;-69
2023/03/20 05:21:25;;;;;;;32.03;23.38;;;8.90;97.50;;;;;;5054324;28;20025;-68
2023/03/20 05:23:51;;;;;;;34.05;21.60;;;9.00;97.60;;;;;;5054458;28;20381;-69
2023/03/20 05:26:16;;;;;;;32.97;22.73;;;9.00;97.70;;;;;;5054550;28;20116;-68
2023/03/20 05:28:42;;;;;;;34.72;22.05;;;9.00;97.70;;;;;;5054052;28;20417;-68
2023/03/20 05:31:08;;;;;;;31.75;23.08;;;9.10;97.80;;;;;;5054390;28;20416;-69
2023/03/20 05:33:33;;;;;;;34.42;22.67;;;9.00;98.00;;;;;;5053970;28;20462;-67
2023/03/20 05:35:59;;;;;;;30.75;22.38;;;9.00;98.00;;;;;;5053129;28;20029;-68
2023/03/20 05:38:26;;;;;;;30.65;23.65;;;9.10;98.00;;;;;;5053538;28;20116;-69
2023/03/20 05:40:59;;;;;;;38.42;29.67;;;9.10;97.90;;;;;;5054320;28;20033;-68
2023/03/20 05:43:26;;;;;;;48.10;37.60;;;9.10;97.90;;;;;;5053468;28;20049;-68
2023/03/20 05:45:52;;;;;;;56.00;42.67;;;9.10;97.80;;;;;;5054087;28;20037;-68
2023/03/20 05:48:18;;;;;;;57.83;46.88;;;9.20;97.80;;;;;;5053529;28;20426;-68
2023/03/20 05:50:44;;;;;;;58.35;48.42;;;9.20;97.70;;;;;;5053371;28;20029;-68
2023/03/20 05:53:10;;;;;;;57.22;46.58;;;9.30;97.40;;;;;;5053895;28;20421;-69
2023/03/20 05:55:36;;;;;;;54.88;45.03;;;9.40;97.20;;;;;;5053535;28;20120;-69
2023/03/20 05:58:01;;;;;;;56.80;43.45;;;9.40;96.90;;;;;;5053818;28;20373;-68
2023/03/20 06:00:27;;;;;;;51.22;41.33;;;9.40;96.70;;;;;;5053325;28;20044;-68
2023/03/20 06:02:53;;;;;;;53.35;40.80;;;9.50;96.50;;;;;;5053731;28;20032;-68
2023/03/20 06:05:18;;;;;;;53.25;38.95;;;9.50;96.40;;;;;;5053980;28;20032;-68
2023/03/20 06:07:44;;;;;;;46.90;36.15;;;9.60;96.40;;;;;;5052840;28;20035;-68
2023/03/20 06:10:10;;;;;;;46.63;35.97;;;9.60;96.30;;;;;;5052526;28;20372;-68
2023/03/20 06:12:36;;;;;;;46.40;35.05;;;9.60;96.30;;;;;;5053466;28;20104;-68
2023/03/20 06:15:02;;;;;;;44.53;32.65;;;9.60;96.40;;;;;;5053512;28;20246;-68
2023/03/20 06:17:27;;;;;;;41.88;30.10;;;9.70;96.20;;;;;;5053125;28;20103;-68
2023/03/20 06:19:53;;;;;;;38.72;28.70;;;9.70;96.30;;;;;;5053211;28;20036;-68
2023/03/20 06:22:19;;;;;;;35.33;25.58;;;9.70;96.00;;;;;;5053432;28;20104;-69
2023/03/20 06:24:45;;;;;;;30.52;23.30;;;9.80;95.80;;;;;;5051785;28;20036;-68
2023/03/20 06:27:11;;;;;;;30.35;22.27;;;9.90;95.70;;;;;;5052997;28;20036;-70
2023/03/20 06:29:36;;;;;;;34.17;21.52;;;9.90;95.40;;;;;;5052937;28;20108;-68
2023/03/20 06:32:02;;;;;;;30.65;20.67;;;10.00;95.40;;;;;;5053254;28;20100;-68
2023/03/20 06:34:29;;;;;;;28.77;20.42;;;10.00;95.30;;;;;;5052651;28;20049;-68
2023/03/20 06:36:55;;;;;;;32.72;19.20;;;10.10;95.30;;;;;;5053003;28;20025;-68
2023/03/20 06:39:20;;;;;;;34.20;20.63;;;10.10;95.40;;;;;;5052852;28;20099;-68
2023/03/20 06:41:46;;;;;;;27.92;20.08;;;10.20;95.20;;;;;;5052353;28;20465;-68
2023/03/20 06:44:12;;;;;;;27.75;19.17;;;10.30;95.30;;;;;;5052650;28;20049;-69
2023/03/20 06:46:37;;;;;;;27.13;18.60;;;10.30;95.00;;;;;;5052319;28;20044;-68
2023/03/20 06:49:03;;;;;;;29.92;19.75;;;10.40;94.90;;;;;;5052700;28;20079;-68
2023/03/20 06:51:28;;;;;;;25.85;19.50;;;10.50;94.90;;;;;;5052606;28;20377;-67
2023/03/20 06:53:54;;;;;;;28.70;19.80;;;10.60;94.80;;;;;;5052964;28;20351;-68
2023/03/20 06:56:20;;;;;;;24.25;18.17;;;10.70;94.60;;;;;;5052947;28;20406;-68
2023/03/20 06:58:45;;;;;;;29.33;17.98;;;10.80;94.50;;;;;;5052309;28;20108;-68
2023/03/20 07:01:14;;;;;;;25.17;17.92;;;10.90;94.20;;;;;;5051735;28;20025;-68
2023/03/20 07:03:40;;;;;;;28.20;18.73;;;11.10;94.00;;;;;;5052287;28;20025;-68
2023/03/20 07:06:06;;;;;;;28.67;18.08;;;11.20;93.80;;;;;;5052498;28;20374;-68
2023/03/20 07:08:33;;;;;;;24.38;17.50;;;11.30;93.90;;;;;;5052401;28;20025;-69
2023/03/20 07:10:59;;;;;;;27.17;17.35;;;11.40;93.80;;;;;;5052528;28;20021;-68
2023/03/20 07:13:25;;;;;;;26.85;18.02;;;11.50;93.60;;;;;;5052476;28;20388;-68
2023/03/20 07:15:51;;;;;;;25.42;17.02;;;11.70;93.50;;;;;;5051730;28;20028;-68
2023/03/20 07:18:17;;;;;;;21.80;16.25;;;11.80;93.20;;;;;;5052427;28;20033;-68
2023/03/20 07:20:43;;;;;;;19.55;15.38;;;12.20;92.90;;;;;;5052151;28;20036;-67
2023/03/20 07:23:09;;;;;;;22.50;15.75;;;12.50;91.80;;;;;;5052210;28;20029;-67
2023/03/20 07:25:35;;;;;;;23.45;15.05;;;12.90;90.80;;;;;;5051903;28;20033;-67
2023/03/20 07:28:00;;;;;;;22.77;14.35;;;13.30;89.00;;;;;;5052576;28;20032;-68
2023/03/20 07:30:26;;;;;;;20.95;13.82;;;13.60;87.20;;;;;;5052479;28;20029;-68
2023/03/20 07:32:52;;;;;;;21.00;13.60;;;14.00;85.00;;;;;;5052100;28;20017;-68
2023/03/20 07:35:19;;;;;;;19.25;12.38;;;14.40;81.40;;;;;;5052173;28;20477;-67
2023/03/20 07:37:44;;;;;;;15.85;12.45;;;14.80;80.30;;;;;;5050517;28;20454;-68
2023/03/20 07:40:10;;;;;;;18.80;12.68;;;15.30;77.20;;;;;;5052364;28;20029;-68
2023/03/20 07:42:36;;;;;;;18.73;11.98;;;15.80;74.60;;;;;;5051755;28;20052;-69
2023/03/20 07:45:02;;;;;;;15.60;11.88;;;16.30;72.30;;;;;;5052001;28;20021;-68
2023/03/20 07:47:28;;;;;;;18.08;11.00;;;16.80;68.90;;;;;;5052232;28;20029;-68
2023/03/20 07:49:53;;;;;;;15.93;10.40;;;17.60;67.00;;;;;;5052424;28;20456;-67
2023/03/20 07:52:19;;;;;;;15.07;11.52;;;18.30;63.00;;;;;;5052630;28;20029;-68
2023/03/20 07:54:45;;;;;;;17.83;11.25;;;19.00;61.00;;;;;;5051931;28;20108;-68
2023/03/20 07:57:10;;;;;;;21.25;11.07;;;19.60;58.60;;;;;;5052311;28;20385;-68
2023/03/20 07:59:36;;;;;;;15.70;11.32;;;20.30;57.30;;;;;;5051501;28;20068;-68
2023/03/20 08:02:02;;;;;;;25.50;11.23;;;21.00;55.40;;;;;;5052084;28;20075;-68
2023/03/20 08:04:27;;;;;;;13.50;9.75;;;21.50;53.20;;;;;;5051626;28;20025;-69
2023/03/20 08:06:53;;;;;;;14.32;8.68;;;22.10;52.30;;;;;;5051309;28;20040;-68
2023/03/20 08:09:19;;;;;;;9.98;7.95;;;22.10;50.60;;;;;;5051909;28;20051;-68
2023/03/20 08:11:45;;;;;;;9.18;8.23;;;21.90;50.40;;;;;;5053152;28;20094;-68
2023/03/20 08:14:11;;;;;;;12.05;8.05;;;22.20;50.00;;;;;;5055816;28;20068;-67
2023/03/20 08:16:36;;;;;;;12.88;7.47;;;22.10;49.40;;;;;;5055483;28;20454;-68
2023/03/20 08:19:04;;;;;;;12.43;8.10;;;22.30;48.50;;;;;;5055379;28;20075;-68
2023/03/20 08:21:31;;;;;;;11.43;7.35;;;22.80;48.30;;;;;;5055679;28;20115;-68
2023/03/20 08:23:57;;;;;;;11.23;7.85;;;22.90;46.80;;;;;;5055455;28;20486;-68
2023/03/20 08:26:24;;;;;;;12.02;7.15;;;22.60;46.20;;;;;;5055381;28;20061;-68
2023/03/20 08:28:49;;;;;;;9.65;6.97;;;22.90;46.80;;;;;;5055185;28;20040;-68
2023/03/20 08:31:16;;;;;;;10.43;7.28;;;23.20;45.90;;;;;;5055528;28;20028;-67
2023/03/20 08:33:45;;;;;;;9.18;7.30;;;22.90;46.10;;;;;;5054956;28;20115;-68
2023/03/20 08:36:13;;;;;;;9.57;7.40;;;22.30;46.30;;;;;;5053980;28;20033;-69
2023/03/20 08:38:39;;;;;;;9.13;7.22;;;22.00;47.00;;;;;;5054902;28;20029;-68
2023/03/20 08:41:05;;;;;;;9.40;7.45;;;21.60;48.50;;;;;;5055272;28;20109;-68
2023/03/20 08:43:31;;;;;;;13.35;8.15;;;21.40;48.30;;;;;;5055276;28;20477;-68
2023/03/20 08:45:57;;;;;;;9.38;7.38;;;20.90;50.10;;;;;;5054775;28;20043;-69
2023/03/20 08:48:22;;;;;;;13.02;7.53;;;20.50;50.50;;;;;;5054895;28;20024;-67
2023/03/20 08:50:48;;;;;;;12.20;6.93;;;20.50;51.50;;;;;;5054784;28;20025;-68
2023/03/20 08:53:14;;;;;;;8.60;6.75;;;20.00;52.40;;;;;;5055157;28;20029;-68
2023/03/20 08:55:40;;;;;;;11.30;7.40;;;20.00;52.90;;;;;;5054530;28;20025;-69
2023/03/20 08:58:05;;;;;;;9.40;7.38;;;19.80;53.10;;;;;;5054961;28;20032;-68
2023/03/20 09:00:31;;;;;;;12.05;7.40;;;19.70;52.80;;;;;;5054903;28;20399;-67
2023/03/20 09:02:57;;;;;;;13.23;7.65;;;19.50;53.70;;;;;;5054414;28;20035;-67
2023/03/20 09:05:22;;;;;;;10.88;7.40;;;19.40;54.20;;;;;;5054616;28;20025;-67
2023/03/20 09:07:48;;;;;;;10.38;6.70;;;19.30;54.60;;;;;;5054470;28;20124;-68
2023/03/20 09:10:14;;;;;;;10.25;6.50;;;19.00;56.10;;;;;;5054830;28;20040;-68
2023/03/20 09:12:40;;;;;;;10.70;6.18;;;19.10;55.70;;;;;;5054134;28;20082;-67
2023/03/20 09:15:06;;;;;;;9.85;6.10;;;19.10;56.60;;;;;;5054741;28;20381;-67
2023/03/20 09:17:32;;;;;;;8.13;5.43;;;19.20;55.70;;;;;;5054284;28;20378;-68
2023/03/20 09:19:58;;;;;;;8.98;5.18;;;19.20;56.30;;;;;;5054006;28;20028;-68
2023/03/20 09:22:24;;;;;;;8.98;5.50;;;19.10;55.10;;;;;;5054281;28;20029;-69
2023/03/20 09:24:49;;;;;;;9.35;5.60;;;19.00;55.60;;;;;;5053726;28;20074;-68
2023/03/20 09:27:15;;;;;;;7.78;4.93;;;18.70;56.30;;;;;;5054179;28;20116;-68
2023/03/20 09:29:41;;;;;;;6.47;4.32;;;18.80;57.10;;;;;;5053975;28;20033;-68
2023/03/20 09:32:11;;;;;;;10.25;4.88;;;18.90;56.30;;;;;;5054068;28;20044;-68
2023/03/20 09:34:36;;;;;;;6.50;4.43;;;19.10;56.10;;;;;;5053995;28;20029;-69
2023/03/20 09:37:03;;;;;;;6.15;4.28;;;19.20;56.60;;;;;;5054232;28;20039;-67
2023/03/20 09:39:29;;;;;;;7.25;4.60;;;19.20;56.00;;;;;;5053999;28;20052;-69
2023/03/20 09:42:00;;;;;;;7.13;4.07;;;19.20;55.90;;;;;;5053649;28;20021;-69
2023/03/20 09:44:55;;;;;;;5.88;4.18;;;19.20;56.00;;;;;;5053844;28;20033;-67
2023/03/20 09:47:37;;;;;;;6.05;3.30;;;19.40;54.80;;;;;;5053609;28;20144;-67
2023/03/20 09:50:06;;;;;;;5.13;3.55;;;19.30;53.40;;;;;;5053983;28;20098;-68
2023/03/20 09:52:39;;;;;;;8.43;4.10;;;19.30;53.80;;;;;;5052565;28;20021;-67
2023/03/20 09:55:12;;;;;;;10.18;3.33;;;19.10;54.60;;;;;;5053670;28;20028;-68
2023/03/20 09:57:46;;;;;;;5.95;3.53;;;19.00;55.10;;;;;;5054169;28;20617;-69
2023/03/20 10:00:18;;;;;;;6.18;3.45;;;19.00;55.40;;;;;;5053011;28;20485;-69
2023/03/20 10:02:58;;;;;;;6.00;3.50;;;19.10;54.00;;;;;;5053326;28;20109;-69
2023/03/20 10:05:30;;;;;;;4.82;3.33;;;19.10;53.90;;;;;;5053713;28;20024;-67
2023/03/20 10:08:01;;;;;;;4.57;2.88;;;19.00;53.70;;;;;;5052891;28;20057;-69
2023/03/20 10:10:45;;;;;;;3.80;2.80;;;18.90;54.30;;;;;;5053470;28;20385;-67
2023/03/20 10:13:25;;;;;;;4.57;3.03;;;18.90;54.00;;;;;;5053269;28;20048;-66
2023/03/20 10:16:07;;;;;;;6.05;3.45;;;19.10;54.00;;;;;;5053070;28;20036;-68
2023/03/20 10:18:37;;;;;;;4.10;2.95;;;19.00;54.40;;;;;;5053783;28;20398;-67
2023/03/20 10:21:14;;;;;;;6.30;3.30;;;18.80;53.50;;;;;;5053279;28;20466;-68
2023/03/20 10:23:42;;;;;;;5.63;3.15;;;18.80;54.90;;;;;;5053051;28;20041;-68
2023/03/20 10:26:15;;;;;;;4.80;3.00;;;18.80;53.80;;;;;;5053454;28;20044;-67
2023/03/20 10:28:46;;;;;;;5.90;3.03;;;18.80;53.80;;;;;;5052900;28;20025;-67
2023/03/20 10:31:21;;;;;;;4.03;2.72;;;18.90;54.80;;;;;;5053166;28;20029;-67
2023/03/20 10:34:02;;;;;;;6.18;2.70;;;19.00;54.30;;;;;;5053064;28;20462;-69
2023/03/20 10:36:40;;;;;;;5.45;3.00;;;18.90;54.00;;;;;;5053210;28;20029;-68
2023/03/20 10:39:32;;;;;;;5.47;2.80;;;18.80;54.30;;;;;;5054166;28;20028;-68
2023/03/20 10:42:01;;;;;;;4.93;2.80;;;18.80;54.90;;;;;;5042758;28;20094;-68
2023/03/20 10:44:35;;;;;;;5.90;3.17;;;18.90;55.20;;;;;;5053917;28;20025;-69
2023/03/20 10:47:04;;;;;;;6.55;2.95;;;19.00;53.60;;;;;;5052398;28;20472;-69
2023/03/20 10:49:45;;;;;;;4.45;3.00;;;19.10;53.40;;;;;;5052981;28;20498;-68
2023/03/20 10:52:21;;;;;;;;;;;19.00;53.60;;;;;;5054076;28;20032;-69
2023/03/20 10:55:02;;;;;;;6.30;2.72;;;18.90;53.30;;;;;;5053404;28;19908;-69
2023/03/20 10:57:33;;;;;;;6.07;2.88;;;18.80;53.40;;;;;;5053150;28;20025;-69
2023/03/20 10:59:58;;;;;;;5.80;2.80;;;18.90;53.50;;;;;;5052168;28;20491;-69
2023/03/20 11:02:28;;;;;;;4.55;2.95;;;18.90;52.70;;;;;;5052579;28;20060;-68
2023/03/20 11:04:54;;;;;;;5.07;3.05;;;18.80;52.80;;;;;;5051985;28;20036;-68
2023/03/20 11:07:25;;;;;;;4.70;2.97;;;19.00;53.70;;;;;;5052625;28;20378;-69
2023/03/20 11:10:15;;;;;;;5.75;2.85;;;19.10;53.50;;;;;;5052111;28;20027;-68
2023/03/20 11:12:44;;;;;;;5.75;2.85;;;18.90;53.80;;;;;;5052625;28;20021;-68
2023/03/20 11:15:28;;;;;;;5.00;3.28;;;18.60;53.80;;;;;;5052560;28;20021;-68
2023/03/20 11:18:04;;;;;;;6.15;3.67;;;18.60;54.20;;;;;;5051909;28;20032;-68
2023/03/20 11:20:36;;;;;;;8.55;3.47;;;18.60;55.20;;;;;;5052179;28;20021;-68
2023/03/20 11:23:05;;;;;;;6.50;3.20;;;18.70;54.90;;;;;;5052271;28;20025;-68
2023/03/20 11:25:45;;;;;;;3.95;2.83;;;18.80;54.50;;;;;;5052425;28;20033;-68
2023/03/20 11:28:34;;;;;;;6.17;3.50;;;18.80;53.60;;;;;;5052640;28;20041;-68
2023/03/20 11:31:16;;;;;;;5.32;3.10;;;18.80;54.30;;;;;;5051975;28;20721;-68
2023/03/20 11:33:45;;;;;;;6.90;3.60;;;18.70;54.10;;;;;;5052431;28;20465;-68
2023/03/20 11:36:24;;;;;;;5.07;3.40;;;18.60;53.50;;;;;;5052075;28;20469;-68
2023/03/20 11:38:52;;;;;;;6.03;3.33;;;18.50;53.60;;;;;;5051992;28;20021;-68
2023/03/20 11:41:28;;;;;;;4.40;2.85;;;18.70;53.90;;;;;;5052223;28;20028;-68
2023/03/20 11:43:54;;;;;;;8.05;3.08;;;18.70;54.40;;;;;;5051623;28;20045;-68
2023/03/20 11:46:21;;;;;;;4.68;3.75;;;18.90;54.60;;;;;;5052832;28;20090;-68
2023/03/20 11:49:16;;;;;;;4.88;3.67;;;18.90;55.10;;;;;;5055706;28;20025;-69
2023/03/20 11:51:41;;;;;;;5.60;3.65;;;18.80;54.60;;;;;;5056114;28;20025;-67
2023/03/20 11:54:21;;;;;;;5.43;4.18;;;18.90;55.00;;;;;;5055639;28;20037;-68
2023/03/20 11:56:58;;;;;;;7.28;4.38;;;18.90;55.00;;;;;;5055540;28;20193;-69
2023/03/20 11:59:33;;;;;;;6.55;4.28;;;18.80;55.80;;;;;;5053798;28;20044;-68
2023/03/20 12:02:02;;;;;;;8.57;4.65;;;18.90;55.80;;;;;;5055633;28;20033;-67
2023/03/20 12:04:44;;;;;;;6.45;4.18;;;18.90;55.20;;;;;;5055782;28;20025;-68
2023/03/20 12:07:29;;;;;;;7.30;3.90;;;19.00;55.20;;;;;;5055382;28;20037;-67
2023/03/20 12:10:05;;;;;;;5.28;4.13;;;18.90;55.60;;;;;;5055371;28;20555;-68
2023/03/20 12:12:49;;;;;;;7.10;4.93;;;19.00;55.10;;;;;;5055944;28;20025;-69
2023/03/20 12:15:27;;;;;;;8.57;4.07;;;18.80;54.90;;;;;;5055858;28;20024;-68
2023/03/20 12:17:52;;;;;;;8.80;4.40;;;18.60;55.50;;;;;;5054925;28;20536;-69
2023/03/20 12:20:45;;;;;;;4.90;3.92;;;18.40;54.90;;;;;;5055763;28;20101;-68
2023/03/20 12:23:42;;;;;;;8.68;4.90;;;18.40;55.90;;;;;;5055275;28;20021;-67
2023/03/20 12:26:16;;;;;;;7.93;4.47;;;18.30;56.70;;;;;;5055064;28;20029;-67
2023/03/20 12:28:56;;;;;;;8.05;4.70;;;18.10;56.90;;;;;;5055494;28;20029;-66
2023/03/20 12:31:45;;;;;;;8.50;3.93;;;18.00;58.50;;;;;;5055260;28;20021;-69
2023/03/20 12:34:17;;;;;;;7.97;3.58;;;17.90;58.00;;;;;;5054054;28;20041;-69
2023/03/20 12:36:48;;;;;;;5.25;3.95;;;17.80;57.70;;;;;;5055355;28;20515;-68
2023/03/20 12:39:19;;;;;;;8.70;3.92;;;17.70;58.00;;;;;;5054860;28;20036;-67
2023/03/20 12:42:03;;;;;;;6.18;4.60;;;17.70;58.60;;;;;;5055411;28;20025;-68
2023/03/20 12:44:40;;;;;;;8.57;4.30;;;17.70;58.60;;;;;;5055211;28;20040;-68
2023/03/20 12:47:28;;;;;;;7.00;3.90;;;17.70;59.00;;;;;;5054714;28;20112;-68
2023/03/20 12:49:59;;;;;;;8.38;4.10;;;17.60;58.50;;;;;;5054313;28;20473;-68
2023/03/20 12:52:44;;;;;;;6.38;3.97;;;17.50;58.60;;;;;;5055101;28;20063;-68